Huvudsida
METAR-TAF:

METAR-TAF

Flygplatser :

Niamey, Niger

latitud: 13-29N, longitud: 002-10E, höjd: 223 m

Aktuellt väderrapport

Denna rapport gjordes för 1 timme och 2 minuter sedan, klockan 07:00 UTC
Stilla vind
Temperatur 28°C
Fuktighet 37%
Tryck 1011 hPa
Sikt: 3500 m
utbrett stoft

METAR: DRRN 230700Z 00000KT 3500 DU NSC 28/12 Q1011 TEMPO 2000

Tid: 09:02 (08:02 UTC)

Väderprognos

Denna rapport gjordes för 3 timmar och 2 minuter sedan, klockan 05:00 UTC
Prognos gäller från 23 kl. 06 UTC till 24 kl. 12 UTC
Vind 10 kt från ost
Sikt: 3000 m
utbrett stoft
Blir
från 23 kl. 09 UTC till 23 kl. 10 UTC
Sikt: 8000 m
Temporärt
från 23 kl. 17 UTC till 23 kl. 19 UTC
Sikt: 3000 m
utbrett stoft
Temporärt
från 24 kl. 05 UTC till 24 kl. 09 UTC
Sikt: 3000 m
utbrett stoft

TAF: DRRN 230500Z 2306/2412 08010KT 3000 DU NSC BECMG 2309/2310 8000 NSW TEMPO 2317/2319 3000 DU TEMPO 2405/2409 3000 DU

Aktuella väderrapporter och prognoser från 4000 flygplatser (METAR- och TAF-rapporter).

De tillgängliga stationerna syns som gula och röda prickar på kartan.

För musen över prickarna för att se namnen på stationerna.

Klicka sedan för att få väderrapporter och prognoser.

För att ändra kartan: Klicka på de gröna knapparna med ett svart kors på för att zooma in; den gröna knappen med ett streck på för att zooma ut; eller på de gröna pilarna för angränsande kartor.


METAR-TAF: